Terminal Aerodrome Forecast
Issued by NWS Wakefield, VA

Home | Current Version | Previous Version | Text Only | Print | Product List | Glossary On
Versions: 1 2 3 4 5 6 7 8 9 10 11 12 13 14 15 16 17 18 19 20 21 22 23 24 25 26
000
FTUS41 KAKQ 061742
TAFSBY
TAF
KSBY 061742Z 0618/0718 22004KT 6SM -RA BR SCT012 OVC035
      TEMPO 0618/0622 4SM -RA BR SCT007 BKN015
     FM062300 19005KT P6SM SCT018 OVC035
     FM070300 24003KT P6SM SCT008 OVC020
     FM070700 27004KT P6SM BKN007
     FM071400 29008KT P6SM SCT012 BKN025=

USA.gov is the U.S. government's official web portal to all federal, state and local government web resources and services.